PROFILE

 METAR AND TAF INFORMATION
ADDS - METARS form results

(0446 UTC 26 January 2021)
http://aviationweather.gov/metar/data/
 
LFRB 260430Z AUTO 17011KT CAVOK 05/03 Q1018 NOSIG
LFRB 260400Z AUTO 17010KT CAVOK 05/02 Q1018 NOSIG
TAF LFRB 252300Z 2600/2706 17008KT CAVOK BECMG 2607/2609 18015G25KT TEMPO 2610/2613 4500 RA BKN013 OVC025 BECMG 2613/2615 20010KT 3000 RA OVC005 BECMG 2615/2617 1200 BR OVC001 BECMG 2617/2618 30008KT TEMPO 2617/2624 0400 FG VV/// BECMG 2623/2701 5000 BR BKN008 TEMPO 2701/2706 0500 FG BKN001 

 AIRPORT MAP

 RUNWAY INFORMATION
Runway 07L Runway length 2297 ft Runway width 59 ft
Runway elevation 311 ft Runway displaced threshold 0 ft Runway heading 71
Runway 25R Runway length 2297 ft Runway width 59 ft
Runway elevation 317 ft Runway displaced threshold 0 ft Runway heading 251
Runway 07R Runway length 10171 ft Runway width 148 ft
Runway elevation 289 ft Runway displaced threshold 0 ft Runway heading 71
Runway 25L Runway length 10171 ft Runway width 148 ft
Runway elevation 312 ft Runway displaced threshold 984 ft Runway heading 251

 AIRPORT FREQUENCIES
Type APP Name LANDI APP Frequency 122.4 MHZ
Type APP Name IROISE APP Frequency 135.825 MHZ
Type ATIS Name ATIS Frequency 129.35 MHZ
Type TWR Name TWR Frequency 120.1 MHZ

 AIRPORT NEAR NAVIGATION AIDS
Type NDB Name Guipavas Frequency 387 KHZ
Type NDB Name Guipavas Frequency 338 KHZ